createdAt,value
2017-11-11T00:00:47.343Z,86.20
2017-11-11T00:03:14.886Z,87.40
2017-11-11T00:05:42.384Z,86.80
2017-11-11T00:08:09.935Z,87.10
2017-11-11T00:10:37.432Z,87.20
2017-11-11T00:13:04.933Z,87.20
2017-11-11T00:15:32.473Z,87.30
2017-11-11T00:18:00.078Z,87.40
2017-11-11T00:20:27.606Z,87.90
2017-11-11T00:22:55.107Z,86.90
2017-11-11T00:25:23.052Z,87.20
2017-11-11T00:27:50.556Z,87.20
2017-11-11T00:30:18.111Z,86.90
2017-11-11T00:32:45.616Z,87.20
2017-11-11T00:35:13.117Z,87.20
2017-11-11T00:37:40.653Z,87.70
2017-11-11T00:40:08.156Z,88.20
2017-11-11T00:42:35.682Z,88.80
2017-11-11T00:45:03.944Z,88.70
2017-11-11T00:47:31.479Z,88.70
2017-11-11T00:49:58.984Z,89.10
2017-11-11T00:52:26.528Z,89.10
2017-11-11T00:54:54.032Z,89.10
2017-11-11T00:57:21.564Z,89.10
2017-11-11T00:59:49.069Z,89.40
2017-11-11T01:02:16.615Z,89.50
2017-11-11T01:04:44.112Z,89.40
2017-11-11T01:07:11.623Z,89.30
2017-11-11T01:09:39.954Z,88.70
2017-11-11T01:12:07.462Z,88.60
2017-11-11T01:14:35.004Z,88.60
2017-11-11T01:17:02.504Z,88.90
2017-11-11T01:19:30.044Z,88.60
2017-11-11T01:21:57.540Z,88.20
2017-11-11T01:24:25.071Z,88.00
2017-11-11T01:26:52.567Z,87.90
2017-11-11T01:29:20.100Z,87.50
2017-11-11T01:31:47.606Z,87.60
2017-11-11T01:34:15.154Z,87.70
2017-11-11T01:36:42.659Z,87.60
2017-11-11T01:39:10.167Z,87.40
2017-11-11T01:41:38.477Z,87.80
2017-11-11T01:44:05.976Z,87.80
2017-11-11T01:46:33.512Z,87.90
2017-11-11T01:49:01.019Z,88.00
2017-11-11T01:51:28.546Z,88.10
2017-11-11T01:53:56.048Z,88.20
2017-11-11T01:56:23.589Z,88.40
2017-11-11T01:58:51.855Z,88.00
2017-11-11T02:01:19.388Z,88.00
2017-11-11T02:03:46.889Z,88.00
2017-11-11T02:06:14.447Z,88.00
2017-11-11T02:08:41.947Z,87.70
2017-11-11T02:11:09.448Z,87.80
2017-11-11T02:13:36.981Z,87.80
2017-11-11T02:16:04.492Z,87.90
2017-11-11T02:18:32.024Z,88.30
2017-11-11T02:20:59.527Z,88.50
2017-11-11T02:23:27.072Z,88.70
2017-11-11T02:25:54.567Z,88.60
2017-11-11T02:28:22.112Z,88.70
2017-11-11T02:30:49.620Z,88.40
2017-11-11T02:33:17.180Z,88.20
2017-11-11T02:35:45.447Z,88.40
2017-11-11T02:38:12.943Z,88.40
2017-11-11T02:40:40.479Z,87.90
2017-11-11T02:43:07.975Z,87.50
2017-11-11T02:45:36.271Z,87.40
2017-11-11T02:48:04.541Z,86.80
2017-11-11T02:50:32.087Z,86.80
2017-11-11T02:52:59.578Z,86.20
2017-11-11T02:55:27.183Z,86.10
2017-11-11T02:57:54.670Z,86.30
2017-11-11T03:00:22.215Z,86.60
2017-11-11T03:02:49.703Z,87.00
2017-11-11T03:05:17.198Z,87.20
2017-11-11T03:07:44.722Z,87.30
2017-11-11T03:10:12.974Z,87.90
2017-11-11T03:12:40.509Z,87.90
2017-11-11T03:15:07.995Z,87.90
2017-11-11T03:17:35.529Z,87.90
2017-11-11T03:20:03.795Z,88.20
2017-11-11T03:22:31.321Z,88.20
2017-11-11T03:24:58.806Z,88.10
2017-11-11T03:27:26.331Z,87.90
2017-11-11T03:29:53.822Z,87.70
2017-11-11T03:32:21.358Z,87.60
2017-11-11T03:34:48.853Z,87.80
2017-11-11T03:37:17.106Z,87.10
2017-11-11T03:39:44.632Z,87.10
2017-11-11T03:42:12.126Z,87.20
2017-11-11T03:44:39.650Z,87.10
2017-11-11T03:47:07.909Z,86.90
2017-11-11T03:49:35.442Z,86.90
2017-11-11T03:52:02.931Z,87.10
2017-11-11T03:54:30.452Z,87.20
2017-11-11T03:56:57.977Z,87.20
2017-11-11T03:59:25.506Z,86.80
2017-11-11T04:01:53.770Z,86.80
2017-11-11T04:04:21.310Z,86.80
2017-11-11T04:06:48.803Z,86.70
2017-11-11T04:09:16.305Z,86.70
2017-11-11T04:11:44.609Z,86.90
2017-11-11T04:14:12.114Z,86.90
2017-11-11T04:16:39.642Z,86.90
2017-11-11T04:19:07.138Z,86.60
2017-11-11T04:21:34.671Z,86.60
2017-11-11T04:24:02.930Z,85.60
2017-11-11T04:26:30.456Z,85.70
2017-11-11T04:28:57.942Z,85.30
2017-11-11T04:31:25.492Z,84.30
2017-11-11T04:33:53.745Z,84.00
2017-11-11T04:36:21.239Z,84.10
2017-11-11T04:38:48.766Z,83.90
2017-11-11T04:41:16.286Z,83.90
2017-11-11T04:43:44.658Z,83.70
2017-11-11T04:46:12.161Z,83.70
2017-11-11T04:48:39.694Z,83.70
2017-11-11T04:51:07.187Z,83.60
2017-11-11T04:53:35.476Z,84.00
2017-11-11T04:56:03.738Z,83.60
2017-11-11T04:58:31.285Z,83.60
2017-11-11T05:00:58.771Z,83.80
2017-11-11T05:03:26.323Z,82.90
2017-11-11T05:05:54.392Z,83.30
2017-11-11T05:08:21.877Z,83.50
2017-11-11T05:10:50.218Z,83.30
2017-11-11T05:13:17.702Z,83.30
2017-11-11T05:15:45.246Z,83.30
2017-11-11T05:18:12.741Z,83.20
2017-11-11T05:20:41.035Z,82.70
2017-11-11T05:23:09.295Z,82.20
2017-11-11T05:25:36.815Z,82.20
2017-11-11T05:28:04.304Z,82.10
2017-11-11T05:30:31.826Z,81.10
2017-11-11T05:33:00.087Z,81.30
2017-11-11T05:35:27.638Z,80.50
2017-11-11T05:37:55.126Z,79.90
2017-11-11T05:40:22.610Z,79.70
2017-11-11T05:42:50.133Z,79.50
2017-11-11T05:45:17.629Z,79.20
2017-11-11T05:47:45.158Z,79.30
2017-11-11T05:50:13.418Z,78.80
2017-11-11T05:52:40.946Z,78.80
2017-11-11T05:55:08.446Z,78.90
2017-11-11T05:57:35.971Z,78.80
2017-11-11T06:00:03.462Z,79.10
2017-11-11T06:02:30.950Z,78.70
2017-11-11T06:04:58.477Z,78.90
2017-11-11T06:07:26.727Z,78.20
2017-11-11T06:09:54.254Z,78.20
2017-11-11T06:12:21.746Z,78.60
2017-11-11T06:14:49.269Z,78.70
2017-11-11T06:17:16.759Z,78.80
2017-11-11T06:19:44.292Z,78.70
2017-11-11T06:22:11.778Z,78.30
2017-11-11T06:24:39.306Z,78.00
2017-11-11T06:27:06.798Z,78.10
2017-11-11T06:29:34.330Z,78.30
2017-11-11T06:32:02.579Z,77.60
2017-11-11T06:34:30.127Z,77.50
2017-11-11T06:36:57.621Z,77.70
2017-11-11T06:39:25.110Z,77.20
2017-11-11T06:41:53.407Z,77.70
2017-11-11T06:44:20.903Z,77.70
2017-11-11T06:46:48.425Z,77.70
2017-11-11T06:49:16.685Z,77.30
2017-11-11T06:51:44.201Z,77.30
2017-11-11T06:54:12.457Z,76.60
2017-11-11T06:56:39.994Z,76.60
2017-11-11T06:59:07.491Z,76.10
2017-11-11T07:01:35.014Z,75.70
2017-11-11T07:04:02.502Z,75.60
2017-11-11T07:06:30.050Z,76.20
2017-11-11T07:08:58.306Z,76.30
2017-11-11T07:11:25.807Z,76.30
2017-11-11T07:13:54.098Z,76.00
2017-11-11T07:16:22.352Z,76.10
2017-11-11T07:18:49.882Z,76.10
2017-11-11T07:21:17.377Z,76.30
2017-11-11T07:23:44.902Z,76.30
2017-11-11T07:26:12.393Z,75.80
2017-11-11T07:28:39.910Z,75.60
2017-11-11T07:31:07.395Z,75.70
2017-11-11T07:33:34.920Z,75.10
2017-11-11T07:36:02.421Z,75.10
2017-11-11T07:38:30.294Z,75.10
2017-11-11T07:40:57.781Z,74.60
2017-11-11T07:43:25.270Z,74.30
2017-11-11T07:45:53.562Z,73.90
2017-11-11T07:48:21.814Z,74.60
2017-11-11T07:50:49.330Z,74.60
2017-11-11T07:53:17.590Z,74.50
2017-11-11T07:55:45.113Z,74.50
2017-11-11T07:58:12.605Z,74.30
2017-11-11T08:00:40.126Z,74.10
2017-11-11T08:03:08.378Z,73.80
2017-11-11T08:05:35.915Z,73.70
2017-11-11T08:08:04.172Z,73.50
2017-11-11T08:10:32.428Z,74.10
2017-11-11T08:12:59.954Z,74.10
2017-11-11T08:15:27.438Z,74.50
2017-11-11T08:17:55.002Z,74.90
2017-11-11T08:20:22.490Z,75.40
2017-11-11T08:22:50.014Z,76.30
2017-11-11T08:25:18.268Z,76.80
2017-11-11T08:27:45.807Z,76.80
2017-11-11T08:30:13.306Z,77.10
2017-11-11T08:32:40.789Z,77.50
2017-11-11T08:35:08.310Z,77.80
2017-11-11T08:37:35.806Z,78.20
2017-11-11T08:40:03.345Z,78.40
2017-11-11T08:42:31.599Z,78.30
2017-11-11T08:44:59.138Z,78.30
2017-11-11T08:47:26.630Z,78.90
2017-11-11T08:49:54.115Z,78.90
2017-11-11T08:52:21.642Z,79.70
2017-11-11T08:54:49.136Z,79.60
2017-11-11T08:57:16.657Z,79.20
2017-11-11T08:59:44.144Z,80.10
2017-11-11T09:02:11.660Z,80.40
2017-11-11T09:04:39.142Z,80.20
2017-11-11T09:07:06.662Z,80.20
2017-11-11T09:09:34.154Z,80.40
2017-11-11T09:12:01.840Z,80.80
2017-11-11T09:14:29.610Z,81.20
2017-11-11T09:16:57.101Z,79.90
2017-11-11T09:19:24.646Z,81.00
2017-11-11T09:21:52.130Z,80.80
2017-11-11T09:24:19.656Z,81.40
2017-11-11T09:26:47.144Z,81.70
2017-11-11T09:29:14.670Z,82.40
2017-11-11T09:31:42.153Z,82.50
2017-11-11T09:34:10.450Z,80.80
2017-11-11T09:36:38.697Z,82.00
2017-11-11T09:39:06.227Z,82.00
2017-11-11T09:41:33.715Z,82.60
2017-11-11T09:44:01.201Z,82.70
2017-11-11T09:46:28.726Z,82.20
2017-11-11T09:48:56.209Z,83.00
2017-11-11T09:51:23.734Z,83.80
2017-11-11T09:53:51.214Z,84.30
2017-11-11T09:56:18.742Z,84.10
2017-11-11T09:58:46.236Z,84.30
2017-11-11T10:01:13.756Z,84.00
2017-11-11T10:03:42.007Z,84.00
2017-11-11T10:06:09.567Z,84.00
2017-11-11T10:08:37.058Z,84.20
2017-11-11T10:11:04.553Z,84.10
2017-11-11T10:13:32.840Z,85.00
2017-11-11T10:16:01.093Z,86.20
2017-11-11T10:18:28.631Z,86.10
2017-11-11T10:20:56.122Z,87.00
2017-11-11T10:23:23.646Z,86.80
2017-11-11T10:25:51.997Z,86.40
2017-11-11T10:28:19.528Z,86.70
2017-11-11T10:30:47.026Z,86.50
2017-11-11T10:33:14.550Z,86.70
2017-11-11T10:35:42.072Z,86.80
2017-11-11T10:38:09.615Z,86.80
2017-11-11T10:40:37.106Z,86.60
2017-11-11T10:43:05.366Z,86.30
2017-11-11T10:45:32.895Z,86.30
2017-11-11T10:48:00.395Z,87.40
2017-11-11T10:50:28.687Z,87.60
2017-11-11T10:52:56.185Z,87.60
2017-11-11T10:55:23.733Z,87.70
2017-11-11T10:57:52.006Z,89.70
2017-11-11T11:00:19.545Z,89.70
2017-11-11T11:02:47.041Z,89.20
2017-11-11T11:05:14.563Z,89.30
2017-11-11T11:07:42.062Z,89.60
2017-11-11T11:10:09.563Z,89.90
2017-11-11T11:12:37.870Z,90.30
2017-11-11T11:15:06.139Z,90.70
2017-11-11T11:17:33.663Z,90.60
2017-11-11T11:20:01.156Z,90.30
2017-11-11T11:22:28.690Z,90.00
2017-11-11T11:24:56.197Z,90.20
2017-11-11T11:27:23.727Z,90.30
2017-11-11T11:29:51.226Z,89.80
2017-11-11T11:32:18.755Z,89.40
2017-11-11T11:34:47.007Z,88.80
2017-11-11T11:37:14.687Z,88.80
2017-11-11T11:39:42.186Z,88.90
2017-11-11T11:42:10.453Z,89.70
2017-11-11T11:44:38.283Z,89.60
2017-11-11T11:47:05.765Z,89.70
2017-11-11T11:49:33.297Z,89.70
2017-11-11T11:52:00.786Z,89.40
2017-11-11T11:54:28.306Z,89.50
2017-11-11T11:56:55.799Z,89.60
2017-11-11T11:59:23.319Z,89.90
2017-11-11T12:01:50.812Z,89.90
2017-11-11T12:04:18.307Z,89.60
2017-11-11T12:06:45.919Z,88.90
2017-11-11T12:09:13.406Z,88.90
2017-11-11T12:11:40.930Z,88.80
2017-11-11T12:14:08.423Z,89.80
2017-11-11T12:16:36.738Z,88.00
2017-11-11T12:19:04.222Z,88.00
2017-11-11T12:21:31.710Z,88.50
2017-11-11T12:23:59.230Z,89.50
2017-11-11T12:26:26.718Z,89.20
2017-11-11T12:28:54.251Z,90.20
2017-11-11T12:31:22.507Z,90.60
2017-11-11T12:33:50.030Z,90.30
2017-11-11T12:36:18.286Z,90.70
2017-11-11T12:38:45.812Z,90.70
2017-11-11T12:41:13.306Z,90.70
2017-11-11T12:43:40.864Z,90.50
2017-11-11T12:46:08.355Z,90.50
2017-11-11T12:48:35.880Z,90.70
2017-11-11T12:51:03.366Z,90.70
2017-11-11T12:53:30.907Z,90.00
2017-11-11T12:55:59.163Z,91.10
2017-11-11T12:58:26.647Z,91.10
2017-11-11T13:00:54.173Z,91.40
2017-11-11T13:03:22.534Z,91.80
2017-11-11T13:05:50.827Z,91.60
2017-11-11T13:08:19.074Z,91.80
2017-11-11T13:10:46.595Z,91.80
2017-11-11T13:13:14.079Z,91.70
2017-11-11T13:15:41.614Z,91.40
2017-11-11T13:18:09.095Z,91.50
2017-11-11T13:20:37.370Z,91.40
2017-11-11T13:23:04.890Z,91.40
2017-11-11T13:25:32.447Z,91.40
2017-11-11T13:27:59.973Z,91.40
2017-11-11T13:30:27.462Z,91.50
2017-11-11T13:32:55.743Z,92.20
2017-11-11T13:35:23.232Z,91.80
2017-11-11T13:37:51.515Z,92.00
2017-11-11T13:40:19.015Z,92.00
2017-11-11T13:42:46.540Z,92.10
2017-11-11T13:45:14.030Z,92.20
2017-11-11T13:47:42.322Z,92.40
2017-11-11T13:50:10.576Z,92.20
2017-11-11T13:52:38.113Z,92.20
2017-11-11T13:55:05.630Z,92.30
2017-11-11T13:57:33.122Z,92.60
2017-11-11T14:00:01.410Z,92.90
2017-11-11T14:02:29.659Z,93.10
2017-11-11T14:04:57.187Z,93.10
2017-11-11T14:07:24.674Z,93.20
2017-11-11T14:09:52.199Z,93.10
2017-11-11T14:12:20.307Z,93.10
2017-11-11T14:14:48.615Z,93.10
2017-11-11T14:17:16.098Z,93.10
2017-11-11T14:19:43.589Z,93.20
2017-11-11T14:22:11.126Z,93.20
2017-11-11T14:24:38.614Z,93.30
2017-11-11T14:27:06.141Z,93.30
2017-11-11T14:29:34.397Z,93.40
2017-11-11T14:32:01.930Z,93.20
2017-11-11T14:34:29.414Z,93.00
2017-11-11T14:36:56.959Z,93.10
2017-11-11T14:39:24.447Z,93.10
2017-11-11T14:41:51.975Z,93.10
2017-11-11T14:44:19.497Z,93.10
2017-11-11T14:46:47.343Z,93.20
2017-11-11T14:49:15.601Z,93.30
2017-11-11T14:51:43.094Z,93.30
2017-11-11T14:54:10.618Z,93.40
2017-11-11T14:56:38.109Z,93.50
2017-11-11T14:59:05.638Z,93.60
2017-11-11T15:01:33.213Z,93.70
2017-11-11T15:04:00.741Z,93.70
2017-11-11T15:06:28.238Z,93.60
2017-11-11T15:08:56.551Z,93.50
2017-11-11T15:11:24.045Z,93.50
2017-11-11T15:13:51.550Z,93.60
2017-11-11T15:16:19.083Z,93.60
2017-11-11T15:18:46.587Z,93.50
2017-11-11T15:21:14.119Z,93.50
2017-11-11T15:23:41.614Z,93.60
2017-11-11T15:26:09.138Z,93.50
2017-11-11T15:28:36.630Z,93.60
2017-11-11T15:31:05.497Z,93.60
2017-11-11T15:33:33.766Z,93.70
2017-11-11T15:36:01.313Z,93.70
2017-11-11T15:38:28.807Z,93.80
2017-11-11T15:40:56.307Z,93.80
2017-11-11T15:43:23.854Z,93.90
2017-11-11T15:45:53.111Z,93.80
2017-11-11T15:48:20.642Z,93.80
2017-11-11T15:50:48.208Z,93.80
2017-11-11T15:53:15.746Z,93.80
2017-11-11T15:55:43.237Z,93.80
2017-11-11T15:58:10.767Z,93.80
2017-11-11T16:00:38.305Z,93.80
2017-11-11T16:03:06.730Z,93.80
2017-11-11T16:05:34.222Z,93.80
2017-11-11T16:08:01.749Z,93.90
2017-11-11T16:10:29.256Z,93.90
2017-11-11T16:12:56.806Z,93.90
2017-11-11T16:15:25.057Z,94.00
2017-11-11T16:17:52.557Z,94.00
2017-11-11T16:20:20.852Z,94.00
2017-11-11T16:22:49.110Z,94.00
2017-11-11T16:25:16.631Z,94.00
2017-11-11T16:27:44.121Z,94.00
2017-11-11T16:30:11.666Z,94.00
2017-11-11T16:32:39.162Z,94.00
2017-11-11T16:35:06.711Z,94.00
2017-11-11T16:37:34.214Z,93.90
2017-11-11T16:40:01.766Z,94.00
2017-11-11T16:42:29.268Z,94.10
2017-11-11T16:44:56.758Z,94.20
2017-11-11T16:47:24.295Z,94.30
2017-11-11T16:49:51.803Z,94.40
2017-11-11T16:52:19.353Z,94.40
2017-11-11T16:54:46.858Z,94.50
2017-11-11T16:57:14.394Z,94.60
2017-11-11T16:59:41.902Z,94.70
2017-11-11T17:02:10.210Z,94.70
2017-11-11T17:04:37.706Z,94.70
2017-11-11T17:07:05.195Z,94.70
2017-11-11T17:09:32.721Z,94.60
2017-11-11T17:12:00.219Z,94.60
2017-11-11T17:14:27.775Z,94.60
2017-11-11T17:16:55.274Z,94.60
2017-11-11T17:19:22.809Z,94.70
2017-11-11T17:21:50.310Z,94.80
2017-11-11T17:24:17.850Z,94.80
2017-11-11T17:26:46.105Z,94.60
2017-11-11T17:29:13.638Z,94.60
2017-11-11T17:31:41.150Z,94.50
2017-11-11T17:34:08.698Z,94.50
2017-11-11T17:36:36.200Z,94.60
2017-11-11T17:39:03.695Z,94.60
2017-11-11T17:41:32.003Z,94.60
2017-11-11T17:43:59.501Z,94.60
2017-11-11T17:46:27.036Z,94.60
2017-11-11T17:48:54.538Z,94.50
2017-11-11T17:51:22.850Z,94.40
2017-11-11T17:53:50.382Z,94.40
2017-11-11T17:56:18.073Z,94.40
2017-11-11T17:58:46.348Z,94.30
2017-11-11T18:01:13.846Z,94.30
2017-11-11T18:03:41.375Z,94.20
2017-11-11T18:06:08.876Z,94.30
2017-11-11T18:08:36.407Z,94.40
2017-11-11T18:11:03.908Z,94.70
2017-11-11T18:13:31.437Z,94.70
2017-11-11T18:15:58.936Z,94.60
2017-11-11T18:18:26.471Z,94.90
2017-11-11T18:20:53.975Z,95.10
2017-11-11T18:23:21.526Z,95.50
2017-11-11T18:25:49.783Z,95.50
2017-11-11T18:28:17.277Z,95.50
2017-11-11T18:30:44.809Z,95.30
2017-11-11T18:33:12.307Z,95.10
2017-11-11T18:35:39.843Z,95.00
2017-11-11T18:38:07.353Z,95.00
2017-11-11T18:40:34.884Z,94.90
2017-11-11T18:43:02.378Z,94.80
2017-11-11T18:45:29.906Z,94.80
2017-11-11T18:47:57.406Z,94.80
2017-11-11T18:50:24.935Z,94.80
2017-11-11T18:52:53.198Z,95.00
2017-11-11T18:55:20.741Z,95.00
2017-11-11T18:57:48.234Z,95.00
2017-11-11T19:00:15.731Z,95.00
2017-11-11T19:02:44.033Z,94.90
2017-11-11T19:05:11.526Z,94.90
2017-11-11T19:07:39.063Z,94.70
2017-11-11T19:10:07.326Z,94.40
2017-11-11T19:12:34.850Z,94.40
2017-11-11T19:15:02.359Z,94.40
2017-11-11T19:17:29.893Z,94.30
2017-11-11T19:19:57.382Z,94.60
2017-11-11T19:22:24.926Z,94.30
2017-11-11T19:24:53.190Z,94.10
2017-11-11T19:27:21.482Z,94.50
2017-11-11T19:29:49.858Z,94.10
2017-11-11T19:32:17.398Z,94.10
2017-11-11T19:34:44.947Z,94.10
2017-11-11T19:37:12.438Z,94.00
2017-11-11T19:39:39.996Z,94.00
2017-11-11T19:42:07.497Z,94.00
2017-11-11T19:44:35.042Z,94.00
2017-11-11T19:47:02.596Z,93.90
2017-11-11T19:49:30.351Z,94.00
2017-11-11T19:51:57.927Z,94.10
2017-11-11T19:54:25.430Z,94.10
2017-11-11T19:56:52.972Z,94.00
2017-11-11T19:59:20.490Z,93.90
2017-11-11T20:01:48.045Z,94.00
2017-11-11T20:04:15.563Z,94.10
2017-11-11T20:06:43.271Z,94.20
2017-11-11T20:09:10.959Z,94.30
2017-11-11T20:11:39.272Z,94.10
2017-11-11T20:14:06.872Z,94.10
2017-11-11T20:16:34.431Z,94.10
2017-11-11T20:19:01.923Z,94.20
2017-11-11T20:21:29.413Z,94.20
2017-11-11T20:23:56.950Z,94.20
2017-11-11T20:26:24.446Z,94.10
2017-11-11T20:28:51.998Z,94.10
2017-11-11T20:31:19.505Z,94.10
2017-11-11T20:33:47.039Z,93.90
2017-11-11T20:36:14.526Z,93.90
2017-11-11T20:38:42.082Z,94.10
2017-11-11T20:41:09.724Z,94.10
2017-11-11T20:43:37.401Z,94.20
2017-11-11T20:46:04.931Z,94.30
2017-11-11T20:48:32.478Z,94.40
2017-11-11T20:50:59.984Z,94.20
2017-11-11T20:53:27.688Z,94.30
2017-11-11T20:55:55.204Z,94.30
2017-11-11T20:58:22.695Z,94.30
2017-11-11T21:00:50.231Z,94.30
2017-11-11T21:03:17.733Z,94.30
2017-11-11T21:05:45.311Z,94.30
2017-11-11T21:08:12.810Z,94.30
2017-11-11T21:10:41.109Z,94.40
2017-11-11T21:13:08.606Z,94.40
2017-11-11T21:15:36.146Z,94.50
2017-11-11T21:18:03.634Z,94.60
2017-11-11T21:20:31.182Z,94.50
2017-11-11T21:22:59.466Z,94.40
2017-11-11T21:25:27.725Z,94.40
2017-11-11T21:27:55.266Z,94.40
2017-11-11T21:30:22.763Z,94.20
2017-11-11T21:32:50.295Z,94.20
2017-11-11T21:35:17.796Z,94.40
2017-11-11T21:37:45.347Z,94.70
2017-11-11T21:40:12.846Z,94.40
2017-11-11T21:42:40.383Z,94.40
2017-11-11T21:45:07.879Z,94.20
2017-11-11T21:47:35.426Z,94.10
2017-11-11T21:50:02.923Z,94.00
2017-11-11T21:52:30.410Z,93.90
2017-11-11T21:54:57.938Z,93.80
2017-11-11T21:57:25.442Z,93.80
2017-11-11T21:59:53.123Z,93.50
2017-11-11T22:02:20.823Z,93.30
2017-11-11T22:04:48.352Z,93.10
2017-11-11T22:07:15.843Z,93.10
2017-11-11T22:09:43.386Z,92.70
2017-11-11T22:12:10.925Z,92.80
2017-11-11T22:14:39.182Z,93.00
2017-11-11T22:17:06.710Z,93.00
2017-11-11T22:19:34.206Z,93.00
2017-11-11T22:22:01.731Z,93.20
2017-11-11T22:24:29.997Z,93.40
2017-11-11T22:26:57.526Z,93.40
2017-11-11T22:29:25.017Z,93.60
2017-11-11T22:31:52.665Z,93.60
2017-11-11T22:34:20.170Z,93.70
2017-11-11T22:36:47.719Z,93.80
2017-11-11T22:39:15.206Z,93.90
2017-11-11T22:41:42.693Z,93.90
2017-11-11T22:44:10.224Z,94.10
2017-11-11T22:46:37.718Z,94.10
2017-11-11T22:49:05.247Z,94.30
2017-11-11T22:51:32.746Z,94.30
2017-11-11T22:54:00.266Z,94.30
2017-11-11T22:56:28.521Z,94.30
2017-11-11T22:58:56.047Z,94.20
2017-11-11T23:01:23.545Z,94.30
2017-11-11T23:03:51.086Z,94.30
2017-11-11T23:06:18.610Z,94.30
2017-11-11T23:08:46.108Z,94.30
2017-11-11T23:11:14.407Z,94.30
2017-11-11T23:13:42.670Z,94.30
2017-11-11T23:16:10.208Z,94.30
2017-11-11T23:18:37.698Z,94.30
2017-11-11T23:21:05.227Z,94.30
2017-11-11T23:23:32.718Z,94.30
2017-11-11T23:26:00.252Z,94.30
2017-11-11T23:28:28.509Z,94.20
2017-11-11T23:30:56.057Z,94.20
2017-11-11T23:33:23.571Z,94.10
2017-11-11T23:35:51.066Z,94.10
2017-11-11T23:38:19.353Z,94.10
2017-11-11T23:40:46.854Z,94.10
2017-11-11T23:43:14.442Z,94.10
2017-11-11T23:45:41.962Z,94.20
2017-11-11T23:48:10.254Z,94.10
2017-11-11T23:50:38.510Z,94.10
2017-11-11T23:53:06.059Z,94.10
2017-11-11T23:55:33.579Z,94.10
2017-11-11T23:58:01.842Z,93.90
